Time;durP1;ratioP1;P1;durP2;ratioP2;P2;SDS_P1;SDS_P2;PMS_P1;PMS_P2;Temp;Humidity;BMP_temperature;BMP_pressure;BME280_temperature;BME280_humidity;BME280_pressure;Samples;Min_cycle;Max_cycle;Signal;HPM_P1;HPM_P2
2023/07/20 00:02:00;;;;;;;1.58;1.02;;;21.50;87.70;;;;;;5040977;28;20154;-79
2023/07/20 00:04:26;;;;;;;2.03;1.17;;;21.50;87.50;;;;;;5040640;28;20023;-79
2023/07/20 00:06:51;;;;;;;1.63;1.05;;;21.40;87.80;;;;;;5039985;28;20394;-79
2023/07/20 00:09:17;;;;;;;1.50;1.10;;;21.40;88.20;;;;;;5036045;28;20126;-79
2023/07/20 00:11:52;;;;;;;5.60;1.40;;;21.40;88.20;;;;;;5045936;28;20017;-79
2023/07/20 00:14:18;;;;;;;3.10;1.15;;;21.40;88.20;;;;;;5045591;28;20035;-79
2023/07/20 00:16:51;;;;;;;5.00;0.82;;;21.40;88.50;;;;;;5041357;28;20045;-79
2023/07/20 00:19:17;;;;;;;1.58;1.05;;;21.40;88.70;;;;;;5046615;28;20021;-79
2023/07/20 00:21:43;;;;;;;3.75;1.20;;;21.40;88.90;;;;;;5039359;28;20083;-79
2023/07/20 00:24:09;;;;;;;2.05;1.23;;;21.40;88.70;;;;;;5018334;28;20038;-79
2023/07/20 00:26:37;;;;;;;7.03;1.23;;;21.40;88.30;;;;;;5037540;28;20405;-80
2023/07/20 00:29:11;;;;;;;3.90;1.33;;;21.40;88.20;;;;;;5046803;28;20025;-79
2023/07/20 00:31:37;;;;;;;6.55;1.80;;;21.40;88.80;;;;;;5025972;28;20029;-79
2023/07/20 00:34:06;;;;;;;6.80;1.80;;;21.40;88.90;;;;;;5046187;28;20028;-79
2023/07/20 00:36:31;;;;;;;1.77;1.33;;;21.40;88.60;;;;;;5042425;28;20474;-79
2023/07/20 00:38:57;;;;;;;3.53;1.42;;;21.40;88.70;;;;;;5036786;28;20061;-78
2023/07/20 00:41:23;;;;;;;3.67;2.00;;;21.40;89.10;;;;;;5039135;28;20043;-78
2023/07/20 00:43:48;;;;;;;6.90;1.27;;;21.40;88.90;;;;;;5039882;28;20053;-79
2023/07/20 00:46:14;;;;;;;2.25;1.48;;;21.40;89.10;;;;;;5039875;28;20479;-79
2023/07/20 00:48:41;;;;;;;2.25;1.42;;;21.40;88.80;;;;;;5040905;28;20029;-79
2023/07/20 00:51:07;;;;;;;7.38;1.35;;;21.40;88.90;;;;;;5024159;28;20413;-79
2023/07/20 00:53:33;;;;;;;7.57;1.83;;;21.40;89.30;;;;;;5040737;28;20025;-78
2023/07/20 00:55:59;;;;;;;3.33;1.10;;;21.40;88.90;;;;;;5033701;28;20032;-79
2023/07/20 00:58:25;;;;;;;4.50;1.35;;;21.40;88.80;;;;;;5035889;28;20025;-78
2023/07/20 01:00:51;;;;;;;1.58;1.30;;;21.40;88.90;;;;;;5039186;28;20025;-79
2023/07/20 01:03:16;;;;;;;2.85;1.73;;;21.30;89.10;;;;;;5045027;28;20167;-79
2023/07/20 01:06:19;;;;;;;3.58;1.20;;;21.30;89.10;;;;;;5037959;28;20025;-78
2023/07/20 01:09:00;;;;;;;4.25;1.60;;;21.40;89.60;;;;;;5038533;28;20055;-79
2023/07/20 01:11:45;;;;;;;4.05;1.67;;;21.40;89.30;;;;;;5036762;28;20045;-78
2023/07/20 01:14:12;;;;;;;3.17;1.45;;;21.30;89.00;;;;;;5040687;28;20028;-80
2023/07/20 01:16:37;;;;;;;3.85;1.50;;;21.30;89.10;;;;;;5045371;28;20033;-79
2023/07/20 01:19:03;;;;;;;9.82;1.73;;;21.30;89.20;;;;;;5039104;28;20021;-79
2023/07/20 01:21:46;;;;;;;7.05;1.77;;;21.30;88.70;;;;;;5040150;28;20032;-78
2023/07/20 01:24:12;;;;;;;1.40;1.30;;;21.30;88.50;;;;;;5041786;28;20504;-79
2023/07/20 01:27:02;;;;;;;1.52;1.38;;;21.30;88.70;;;;;;5044772;28;20032;-79
2023/07/20 01:29:57;;;;;;;7.82;1.83;;;21.30;88.50;;;;;;5043471;28;20021;-79
2023/07/20 01:32:24;;;;;;;4.78;1.70;;;21.30;88.70;;;;;;5044380;28;20104;-78
2023/07/20 01:34:52;;;;;;;3.95;1.73;;;21.30;88.30;;;;;;5053103;28;20027;-78
2023/07/20 01:37:20;;;;;;;6.07;1.63;;;21.30;88.30;;;;;;5041178;28;20029;-79
2023/07/20 01:39:46;;;;;;;2.17;1.48;;;21.30;88.30;;;;;;5043268;28;20024;-79
2023/07/20 01:42:12;;;;;;;2.60;1.90;;;21.30;88.00;;;;;;5041717;28;20379;-79
2023/07/20 01:44:38;;;;;;;4.25;1.85;;;21.30;87.90;;;;;;5045055;28;20037;-79
2023/07/20 01:47:04;;;;;;;5.60;1.92;;;21.30;87.60;;;;;;5048529;28;20028;-79
2023/07/20 01:49:29;;;;;;;3.72;1.50;;;21.30;87.30;;;;;;5051346;28;20061;-79
2023/07/20 01:51:55;;;;;;;2.17;1.60;;;21.30;87.30;;;;;;5051764;28;20473;-79
2023/07/20 01:54:21;;;;;;;7.57;1.70;;;21.30;87.20;;;;;;5044937;28;20021;-78
2023/07/20 01:56:46;;;;;;;2.53;1.48;;;21.30;87.10;;;;;;5048988;28;20510;-79
2023/07/20 01:59:12;;;;;;;4.18;1.95;;;21.30;86.80;;;;;;5043653;28;20013;-79
2023/07/20 02:01:38;;;;;;;5.22;1.73;;;21.30;86.70;;;;;;5049986;28;20033;-79
2023/07/20 02:04:03;;;;;;;5.18;1.58;;;21.30;86.60;;;;;;5049570;28;20124;-79
2023/07/20 02:06:29;;;;;;;2.53;1.95;;;21.30;86.40;;;;;;5040150;28;20032;-78
2023/07/20 02:08:54;;;;;;;2.63;1.40;;;21.30;86.50;;;;;;5048710;28;20063;-78
2023/07/20 02:11:20;;;;;;;4.38;1.73;;;21.30;86.40;;;;;;5046103;28;20021;-79
2023/07/20 02:13:46;;;;;;;3.05;1.80;;;21.30;86.40;;;;;;5047407;28;20116;-79
2023/07/20 02:16:11;;;;;;;4.30;1.90;;;21.30;86.20;;;;;;5044834;28;20017;-78
2023/07/20 02:18:37;;;;;;;4.32;1.70;;;21.30;86.10;;;;;;5051035;28;20048;-79
2023/07/20 02:21:02;;;;;;;1.77;1.63;;;21.30;86.00;;;;;;5045617;28;20021;-78
2023/07/20 02:23:28;;;;;;;2.85;1.80;;;21.30;86.00;;;;;;5040820;28;20112;-79
2023/07/20 02:25:54;;;;;;;2.47;1.70;;;21.30;85.80;;;;;;5046207;28;20025;-79
2023/07/20 02:28:19;;;;;;;5.88;1.95;;;21.30;85.80;;;;;;5046121;28;20048;-78
2023/07/20 02:30:46;;;;;;;2.08;1.75;;;21.30;85.80;;;;;;5039340;28;20032;-78
2023/07/20 02:33:12;;;;;;;3.08;1.77;;;21.30;85.80;;;;;;5042264;28;20021;-78
2023/07/20 02:35:37;;;;;;;9.52;1.58;;;21.30;85.80;;;;;;5041957;28;20047;-78
2023/07/20 02:38:03;;;;;;;5.45;1.77;;;21.30;85.60;;;;;;5040533;28;20478;-79
2023/07/20 02:40:29;;;;;;;8.55;1.40;;;21.20;85.50;;;;;;5039959;28;20021;-78
2023/07/20 02:42:54;;;;;;;3.72;1.75;;;21.30;85.50;;;;;;5044823;28;20704;-79
2023/07/20 02:45:20;;;;;;;4.65;1.75;;;21.20;85.40;;;;;;5043414;28;20366;-79
2023/07/20 02:47:45;;;;;;;2.42;1.73;;;21.20;85.40;;;;;;5042600;28;20071;-78
2023/07/20 02:50:13;;;;;;;12.27;1.92;;;21.20;85.30;;;;;;5037393;28;20136;-78
2023/07/20 02:52:39;;;;;;;5.07;1.77;;;21.30;85.30;;;;;;5039991;28;20143;-79
2023/07/20 02:55:04;;;;;;;3.45;1.92;;;21.20;85.30;;;;;;5037338;28;20022;-79
2023/07/20 02:57:30;;;;;;;3.67;1.95;;;21.20;85.20;;;;;;5045839;28;20055;-78
2023/07/20 02:59:56;;;;;;;8.60;1.83;;;21.20;85.10;;;;;;5043022;28;20064;-78
2023/07/20 03:02:21;;;;;;;4.53;1.80;;;21.20;85.20;;;;;;5043815;28;20367;-79
2023/07/20 03:04:47;;;;;;;15.00;2.05;;;21.20;85.10;;;;;;5040269;28;20072;-78
2023/07/20 03:07:12;;;;;;;3.60;1.55;;;21.20;85.10;;;;;;5039632;28;20022;-78
2023/07/20 03:09:39;;;;;;;4.32;1.88;;;21.20;85.10;;;;;;5037273;28;20524;-78
2023/07/20 03:12:05;;;;;;;4.32;1.92;;;21.20;85.00;;;;;;5037767;28;20100;-77
2023/07/20 03:14:31;;;;;;;9.27;2.53;;;21.20;85.00;;;;;;5044817;28;20055;-79
2023/07/20 03:16:56;;;;;;;3.75;1.60;;;21.20;85.00;;;;;;5046455;28;20052;-78
2023/07/20 03:19:22;;;;;;;4.78;1.83;;;21.20;85.00;;;;;;5033741;28;20053;-78
2023/07/20 03:21:48;;;;;;;4.35;2.20;;;21.20;84.90;;;;;;5041429;28;20033;-78
2023/07/20 03:24:13;;;;;;;6.28;2.10;;;21.20;84.80;;;;;;5052882;28;20025;-79
2023/07/20 03:26:39;;;;;;;3.00;1.90;;;21.20;84.70;;;;;;5055657;28;20445;-78
2023/07/20 03:29:06;;;;;;;4.63;2.53;;;21.20;84.70;;;;;;5052609;28;20524;-78
2023/07/20 03:31:32;;;;;;;8.20;1.88;;;21.20;84.70;;;;;;5055322;28;20489;-78
2023/07/20 03:33:58;;;;;;;4.75;1.80;;;21.20;85.30;;;;;;5054338;28;20320;-78
2023/07/20 03:36:23;;;;;;;6.97;2.05;;;21.20;84.60;;;;;;5056166;28;20040;-79
2023/07/20 03:38:50;;;;;;;3.67;1.50;;;21.10;84.50;;;;;;5060132;28;20449;-78
2023/07/20 03:41:16;;;;;;;3.92;1.80;;;21.20;84.60;;;;;;5055123;28;20066;-78
2023/07/20 03:43:41;;;;;;;4.07;1.85;;;21.20;84.50;;;;;;5055626;28;20362;-78
2023/07/20 03:46:07;;;;;;;2.90;1.85;;;21.20;84.50;;;;;;5055533;28;20028;-79
2023/07/20 03:48:33;;;;;;;4.60;1.88;;;21.10;84.40;;;;;;5061817;28;20099;-79
2023/07/20 03:51:00;;;;;;;7.28;1.80;;;21.20;84.40;;;;;;5054149;28;20117;-78
2023/07/20 03:53:25;;;;;;;7.95;2.03;;;21.10;84.30;;;;;;5054216;28;20044;-78
2023/07/20 03:55:52;;;;;;;9.05;2.33;;;21.10;84.30;;;;;;5058683;28;20051;-78
2023/07/20 03:58:19;;;;;;;3.70;1.88;;;21.10;84.30;;;;;;5057660;28;20077;-78
2023/07/20 04:00:52;;;;;;;7.38;1.85;;;21.10;84.30;;;;;;5059855;28;20037;-77
2023/07/20 04:03:19;;;;;;;6.90;2.35;;;21.10;84.30;;;;;;5062596;28;20069;-79
2023/07/20 04:05:45;;;;;;;12.50;2.10;;;21.10;84.40;;;;;;5055180;28;20108;-78
2023/07/20 04:08:11;;;;;;;3.85;2.03;;;21.10;84.30;;;;;;5062613;28;20559;-78
2023/07/20 04:10:37;;;;;;;6.28;1.80;;;21.10;84.40;;;;;;5059777;28;20052;-78
2023/07/20 04:13:04;;;;;;;7.82;1.90;;;21.10;84.30;;;;;;5056688;28;20044;-78
2023/07/20 04:15:30;;;;;;;10.00;2.45;;;21.10;84.40;;;;;;5062024;28;20032;-78
2023/07/20 04:17:56;;;;;;;5.30;2.05;;;21.10;84.40;;;;;;5066215;28;20016;-79
2023/07/20 04:20:22;;;;;;;4.20;1.88;;;21.10;84.40;;;;;;5061092;28;20091;-78
2023/07/20 04:22:48;;;;;;;7.47;2.25;;;21.10;84.40;;;;;;5049513;28;20069;-79
2023/07/20 04:25:13;;;;;;;3.05;2.08;;;21.10;84.40;;;;;;5040372;28;20130;-79
2023/07/20 04:27:39;;;;;;;3.63;1.83;;;21.10;84.40;;;;;;5037512;28;20029;-78
2023/07/20 04:30:08;;;;;;;3.97;2.28;;;21.10;84.40;;;;;;5037370;28;20107;-79
2023/07/20 04:32:34;;;;;;;7.40;2.15;;;21.10;84.50;;;;;;5043231;28;20017;-78
2023/07/20 04:35:00;;;;;;;10.93;1.90;;;21.10;84.50;;;;;;5042551;28;20073;-78
2023/07/20 04:37:25;;;;;;;4.72;2.10;;;21.10;84.50;;;;;;5036872;28;20021;-79
2023/07/20 04:39:51;;;;;;;7.78;2.20;;;21.10;84.60;;;;;;5033923;28;20018;-78
2023/07/20 04:42:16;;;;;;;6.35;1.90;;;21.10;85.30;;;;;;5040860;28;20495;-78
2023/07/20 04:44:42;;;;;;;3.03;1.90;;;21.10;84.60;;;;;;5035119;28;20033;-79
2023/07/20 04:47:10;;;;;;;6.88;1.73;;;21.10;84.80;;;;;;5039756;28;20504;-78
2023/07/20 04:49:36;;;;;;;9.27;2.30;;;21.10;84.70;;;;;;5042362;28;20404;-79
2023/07/20 04:52:02;;;;;;;3.60;1.80;;;21.10;84.90;;;;;;5043313;28;20102;-79
2023/07/20 04:54:28;;;;;;;3.97;1.90;;;21.00;84.60;;;;;;5041658;28;20087;-79
2023/07/20 04:56:54;;;;;;;6.30;2.00;;;21.00;84.70;;;;;;5041264;28;20029;-78
2023/07/20 04:59:19;;;;;;;6.65;2.00;;;21.00;84.70;;;;;;5039358;28;20022;-79
2023/07/20 05:01:45;;;;;;;6.15;1.85;;;21.10;84.80;;;;;;5039074;28;20565;-79
2023/07/20 05:04:11;;;;;;;3.17;1.77;;;21.10;84.70;;;;;;5041920;28;20087;-79
2023/07/20 05:06:38;;;;;;;3.83;2.22;;;21.10;84.70;;;;;;5040170;28;20022;-79
2023/07/20 05:09:05;;;;;;;5.82;1.63;;;21.10;84.80;;;;;;5045563;28;20779;-79
2023/07/20 05:11:30;;;;;;;3.58;1.92;;;21.10;84.70;;;;;;5040107;28;20055;-79
2023/07/20 05:13:56;;;;;;;3.97;2.30;;;21.10;84.80;;;;;;5038088;28;20049;-79
2023/07/20 05:16:22;;;;;;;9.23;2.10;;;21.10;84.70;;;;;;5043564;28;20056;-79
2023/07/20 05:18:47;;;;;;;6.47;2.13;;;21.20;84.90;;;;;;5042541;28;20075;-79
2023/07/20 05:21:13;;;;;;;2.42;1.83;;;21.20;84.90;;;;;;5050638;28;20028;-79
2023/07/20 05:23:39;;;;;;;4.97;2.20;;;21.10;84.80;;;;;;5040565;28;20155;-78
2023/07/20 05:26:04;;;;;;;7.70;2.38;;;21.20;84.90;;;;;;5046926;28;20053;-79
2023/07/20 05:28:30;;;;;;;4.85;1.83;;;21.20;84.80;;;;;;5046241;28;20412;-79
2023/07/20 05:30:55;;;;;;;5.45;1.70;;;21.20;84.90;;;;;;5042562;28;20061;-79
2023/07/20 05:33:21;;;;;;;10.75;2.47;;;21.20;85.00;;;;;;5043556;28;20017;-79
2023/07/20 05:35:47;;;;;;;5.63;2.10;;;21.20;85.00;;;;;;5043605;28;20391;-79
2023/07/20 05:38:13;;;;;;;9.95;2.22;;;21.10;85.10;;;;;;5041560;28;20108;-79
2023/07/20 05:40:41;;;;;;;4.90;2.22;;;21.10;85.10;;;;;;5041997;28;20029;-79
2023/07/20 05:43:07;;;;;;;5.55;2.08;;;21.10;85.20;;;;;;5049254;28;20021;-79
2023/07/20 05:45:32;;;;;;;2.97;1.85;;;21.10;85.20;;;;;;5041945;28;20022;-79
2023/07/20 05:47:58;;;;;;;6.60;1.70;;;21.10;85.10;;;;;;5042288;28;20032;-79
2023/07/20 05:50:24;;;;;;;11.25;2.35;;;21.10;85.10;;;;;;5042169;28;20029;-79
2023/07/20 05:52:52;;;;;;;7.88;2.03;;;21.10;85.10;;;;;;5044041;28;20398;-78
2023/07/20 05:55:18;;;;;;;6.55;2.20;;;21.10;85.10;;;;;;5043688;28;20833;-79
2023/07/20 05:57:44;;;;;;;6.28;1.90;;;21.10;85.20;;;;;;5044393;28;20110;-79
2023/07/20 06:00:10;;;;;;;12.98;2.05;;;21.10;85.30;;;;;;5047551;28;20112;-78
2023/07/20 06:02:36;;;;;;;8.52;1.85;;;21.10;85.30;;;;;;5030657;28;20416;-79
2023/07/20 06:05:02;;;;;;;3.65;1.70;;;21.10;85.30;;;;;;5042294;28;20021;-79
2023/07/20 06:07:28;;;;;;;12.73;2.22;;;21.10;85.40;;;;;;5039783;28;20029;-79
2023/07/20 06:09:53;;;;;;;10.07;2.13;;;21.10;85.40;;;;;;5047600;28;20390;-78
2023/07/20 06:12:19;;;;;;;2.67;1.77;;;21.10;85.50;;;;;;5047209;28;20604;-79
2023/07/20 06:14:44;;;;;;;6.65;2.13;;;21.10;85.40;;;;;;5051115;28;20351;-78
2023/07/20 06:17:10;;;;;;;5.88;2.00;;;21.10;85.30;;;;;;5047721;28;20017;-79
2023/07/20 06:19:35;;;;;;;7.72;1.90;;;21.10;85.30;;;;;;5040917;28;20095;-79
2023/07/20 06:22:02;;;;;;;10.40;2.08;;;21.10;85.40;;;;;;5038303;28;20073;-79
2023/07/20 06:24:27;;;;;;;4.10;1.90;;;21.10;85.40;;;;;;5040815;28;20383;-79
2023/07/20 06:26:53;;;;;;;2.78;1.45;;;21.10;85.50;;;;;;5046789;28;20028;-79
2023/07/20 06:29:19;;;;;;;3.10;1.70;;;21.10;85.50;;;;;;5042552;28;20026;-79
2023/07/20 06:31:44;;;;;;;4.40;1.88;;;21.10;85.70;;;;;;5041371;28;20025;-79
2023/07/20 06:34:10;;;;;;;5.95;1.90;;;21.10;85.40;;;;;;5041543;28;20466;-79
2023/07/20 06:36:36;;;;;;;3.60;2.13;;;21.10;85.50;;;;;;5045637;28;20021;-80
2023/07/20 06:39:05;;;;;;;3.58;1.90;;;21.10;85.60;;;;;;5038019;28;20025;-79
2023/07/20 06:41:31;;;;;;;5.38;2.00;;;21.10;85.70;;;;;;5037207;28;20100;-79
2023/07/20 06:43:58;;;;;;;5.03;1.55;;;21.10;85.70;;;;;;5040267;28;20453;-79
2023/07/20 06:46:27;;;;;;;3.30;1.70;;;21.10;85.90;;;;;;5047474;28;20021;-79
2023/07/20 06:48:53;;;;;;;3.67;1.85;;;21.10;86.10;;;;;;5043739;28;20104;-79
2023/07/20 06:51:19;;;;;;;5.38;2.00;;;21.10;86.00;;;;;;5040743;28;20107;-79
2023/07/20 06:53:45;;;;;;;8.73;1.92;;;21.10;86.20;;;;;;5037453;28;20044;-79
2023/07/20 06:56:11;;;;;;;5.18;1.80;;;21.10;86.30;;;;;;5038068;28;20470;-79
2023/07/20 06:58:37;;;;;;;3.40;1.92;;;21.10;86.40;;;;;;5037189;28;20052;-79
2023/07/20 07:01:06;;;;;;;2.05;1.52;;;21.10;86.40;;;;;;5044309;28;20032;-79
2023/07/20 07:03:33;;;;;;;3.75;2.25;;;21.10;86.50;;;;;;5044777;28;20131;-79
2023/07/20 07:05:58;;;;;;;5.32;1.83;;;21.10;86.60;;;;;;5042488;28;20081;-78
2023/07/20 07:08:24;;;;;;;5.75;1.60;;;21.10;86.70;;;;;;5046692;28;20100;-79
2023/07/20 07:10:50;;;;;;;4.28;1.77;;;21.10;87.30;;;;;;5043694;28;20359;-79
2023/07/20 07:13:16;;;;;;;6.55;2.03;;;21.10;87.10;;;;;;5038449;28;20052;-79
2023/07/20 07:15:42;;;;;;;6.25;2.45;;;21.10;87.10;;;;;;5043570;28;20025;-79
2023/07/20 07:18:08;;;;;;;2.85;2.00;;;21.10;87.30;;;;;;5048819;28;20022;-79
2023/07/20 07:20:33;;;;;;;5.20;2.38;;;21.10;87.60;;;;;;5043094;28;20025;-79
2023/07/20 07:23:00;;;;;;;14.48;6.05;;;21.10;87.60;;;;;;5045458;28;20099;-79
2023/07/20 07:25:31;;;;;;;4.30;1.83;;;21.10;88.00;;;;;;5042833;28;20037;-79
2023/07/20 07:27:59;;;;;;;14.43;2.10;;;21.10;88.20;;;;;;5043931;28;20036;-80
2023/07/20 07:30:25;;;;;;;11.98;2.03;;;21.20;88.40;;;;;;5045536;28;20484;-79
2023/07/20 07:32:51;;;;;;;8.27;1.90;;;21.20;88.30;;;;;;5042000;28;20029;-78
2023/07/20 07:35:16;;;;;;;3.40;1.88;;;21.20;88.60;;;;;;5045052;28;20104;-79
2023/07/20 07:37:42;;;;;;;2.85;1.58;;;21.10;88.40;;;;;;5043853;28;20071;-80
2023/07/20 07:40:08;;;;;;;2.13;1.63;;;21.20;88.80;;;;;;5046064;28;20017;-80
2023/07/20 07:42:34;;;;;;;5.45;1.83;;;21.20;88.70;;;;;;5039802;28;20088;-79
2023/07/20 07:44:59;;;;;;;4.18;1.85;;;21.20;88.90;;;;;;5041404;28;20108;-79
2023/07/20 07:47:25;;;;;;;3.78;1.85;;;21.20;89.10;;;;;;5046390;28;20513;-79
2023/07/20 07:49:51;;;;;;;4.63;1.92;;;21.20;88.60;;;;;;5043403;28;20060;-80
2023/07/20 07:52:16;;;;;;;4.18;1.77;;;21.20;88.60;;;;;;5041763;28;20057;-79
2023/07/20 07:54:42;;;;;;;6.45;2.22;;;21.20;88.30;;;;;;5045128;28;20025;-79
2023/07/20 07:57:07;;;;;;;4.82;1.98;;;21.20;88.40;;;;;;5044437;28;20474;-79
2023/07/20 07:59:36;;;;;;;5.47;1.77;;;21.20;88.50;;;;;;5041343;28;20024;-79
2023/07/20 08:02:04;;;;;;;6.43;1.73;;;21.20;88.30;;;;;;5044919;28;20401;-79
2023/07/20 08:04:30;;;;;;;2.97;1.70;;;21.30;88.10;;;;;;5045346;28;20021;-80
2023/07/20 08:06:55;;;;;;;3.42;1.65;;;21.30;87.90;;;;;;5040711;28;20028;-80
2023/07/20 08:09:21;;;;;;;4.07;1.90;;;21.30;88.20;;;;;;5042483;28;20034;-80
2023/07/20 08:11:48;;;;;;;5.72;1.60;;;21.30;87.90;;;;;;5039243;28;20131;-79
2023/07/20 08:14:13;;;;;;;3.50;1.75;;;21.30;87.60;;;;;;5041479;28;20029;-80
2023/07/20 08:16:39;;;;;;;2.72;1.65;;;21.30;88.00;;;;;;5044579;28;20078;-80
2023/07/20 08:19:05;;;;;;;3.47;1.90;;;21.30;87.30;;;;;;5042569;28;20071;-80
2023/07/20 08:21:30;;;;;;;9.20;1.80;;;21.30;87.40;;;;;;5029869;28;20025;-80
2023/07/20 08:23:56;;;;;;;4.35;1.70;;;21.30;87.70;;;;;;5043436;28;20466;-80
2023/07/20 08:26:23;;;;;;;3.08;1.52;;;21.30;87.70;;;;;;5039954;28;20490;-79
2023/07/20 08:28:48;;;;;;;6.22;1.70;;;21.30;87.60;;;;;;5043424;28;20070;-80
2023/07/20 08:31:14;;;;;;;4.57;1.55;;;21.30;88.00;;;;;;5042840;28;20025;-80
2023/07/20 08:33:39;;;;;;;3.58;1.30;;;21.30;88.30;;;;;;5042955;28;20470;-80
2023/07/20 08:36:05;;;;;;;5.05;1.52;;;21.30;87.90;;;;;;5039908;28;20032;-79
2023/07/20 08:38:31;;;;;;;4.05;1.50;;;21.40;88.20;;;;;;5043831;28;20022;-79
2023/07/20 08:40:59;;;;;;;3.50;1.58;;;21.40;87.30;;;;;;5045375;28;20020;-80
2023/07/20 08:43:25;;;;;;;8.85;1.40;;;21.40;88.10;;;;;;5042634;28;20167;-80
2023/07/20 08:45:53;;;;;;;2.78;1.33;;;21.40;88.00;;;;;;5042589;28;20053;-80
2023/07/20 08:48:20;;;;;;;2.53;1.33;;;21.30;88.10;;;;;;5040303;28;20391;-80
2023/07/20 08:50:49;;;;;;;3.72;1.60;;;21.40;88.40;;;;;;5037471;28;20033;-80
2023/07/20 08:53:14;;;;;;;3.53;1.33;;;21.40;88.00;;;;;;5040142;28;20481;-80
2023/07/20 08:55:43;;;;;;;2.80;1.52;;;21.40;88.30;;;;;;5044099;28;20034;-80
2023/07/20 08:58:11;;;;;;;4.80;1.92;;;21.30;88.60;;;;;;5045485;28;20079;-80
2023/07/20 09:00:37;;;;;;;2.58;1.70;;;21.30;88.60;;;;;;5041534;28;20033;-80
2023/07/20 09:03:04;;;;;;;5.25;1.60;;;21.30;88.70;;;;;;5018579;28;20022;-80
2023/07/20 09:05:30;;;;;;;2.67;1.60;;;21.30;88.70;;;;;;5041093;28;20031;-80
2023/07/20 09:07:56;;;;;;;3.10;1.77;;;21.30;88.80;;;;;;5042897;28;20112;-80
2023/07/20 09:10:23;;;;;;;2.90;1.42;;;21.30;88.70;;;;;;5041300;28;20450;-79
2023/07/20 09:12:49;;;;;;;2.97;1.80;;;21.30;88.90;;;;;;5038499;28;20027;-80
2023/07/20 09:15:16;;;;;;;1.50;1.40;;;21.30;88.60;;;;;;5041294;28;20021;-79
2023/07/20 09:17:49;;;;;;;5.25;1.58;;;21.30;88.70;;;;;;5044203;28;20454;-79
2023/07/20 09:20:16;;;;;;;3.78;1.92;;;21.30;88.90;;;;;;5039859;28;20025;-80
2023/07/20 09:22:42;;;;;;;5.13;1.60;;;21.30;89.00;;;;;;5041222;28;20044;-79
2023/07/20 09:25:11;;;;;;;2.38;1.38;;;21.30;88.70;;;;;;5050418;28;20025;-79
2023/07/20 09:27:38;;;;;;;1.88;1.23;;;21.30;88.80;;;;;;5041208;28;20025;-80
2023/07/20 09:30:07;;;;;;;2.00;1.48;;;21.30;88.60;;;;;;5048058;28;20023;-80
2023/07/20 09:32:40;;;;;;;3.78;1.60;;;21.30;88.60;;;;;;5041320;28;20059;-79
2023/07/20 09:35:06;;;;;;;4.70;1.48;;;21.30;88.70;;;;;;5040840;28;20040;-80
2023/07/20 09:37:33;;;;;;;1.48;1.38;;;21.30;88.80;;;;;;5041855;28;20453;-80
2023/07/20 09:39:59;;;;;;;3.50;1.60;;;21.30;88.70;;;;;;5037680;28;20029;-79
2023/07/20 09:42:27;;;;;;;2.08;1.25;;;21.40;88.70;;;;;;5045944;28;20017;-80
2023/07/20 09:44:53;;;;;;;1.20;1.10;;;21.40;88.70;;;;;;5028486;28;20032;-80
2023/07/20 09:47:25;;;;;;;5.43;1.45;;;21.40;88.30;;;;;;5039247;28;20029;-80
2023/07/20 09:49:59;;;;;;;5.57;1.42;;;21.40;88.30;;;;;;5042620;28;20103;-80
2023/07/20 09:52:26;;;;;;;3.25;1.38;;;21.40;88.30;;;;;;5046464;28;20440;-79
2023/07/20 09:54:52;;;;;;;3.17;1.38;;;21.40;88.10;;;;;;5042758;28;20013;-79
2023/07/20 09:57:18;;;;;;;2.28;1.48;;;21.30;88.20;;;;;;5045884;28;20146;-80
2023/07/20 09:59:43;;;;;;;3.70;1.58;;;21.40;88.40;;;;;;5048324;28;20105;-79
2023/07/20 10:02:22;;;;;;;3.75;1.40;;;21.30;89.00;;;;;;5044300;28;20049;-80
2023/07/20 10:04:53;;;;;;;3.25;1.20;;;21.40;89.10;;;;;;5047350;28;20363;-79
2023/07/20 10:07:22;;;;;;;1.70;1.50;;;21.30;89.10;;;;;;5052759;28;20052;-79
2023/07/20 10:09:59;;;;;;;2.00;1.40;;;21.40;88.40;;;;;;5044458;28;20040;-79
2023/07/20 10:12:27;;;;;;;2.97;1.50;;;21.40;88.30;;;;;;5051906;28;20025;-80
2023/07/20 10:15:04;;;;;;;1.58;1.48;;;21.40;88.10;;;;;;5046417;28;20478;-80
2023/07/20 10:17:39;;;;;;;3.30;1.70;;;21.40;88.80;;;;;;5043147;28;20025;-79
2023/07/20 10:20:07;;;;;;;3.95;1.70;;;21.40;88.80;;;;;;5042812;28;20025;-80
2023/07/20 10:22:38;;;;;;;6.13;1.60;;;21.40;88.30;;;;;;5055827;28;20036;-80
2023/07/20 10:25:06;;;;;;;2.00;1.45;;;21.40;88.30;;;;;;5070245;28;20016;-81
2023/07/20 10:27:31;;;;;;;2.25;1.63;;;21.40;88.40;;;;;;5069783;28;20540;-80
2023/07/20 10:29:58;;;;;;;2.35;1.50;;;21.40;88.50;;;;;;5071733;28;20037;-79
2023/07/20 10:32:24;;;;;;;1.55;1.27;;;21.40;88.70;;;;;;5048492;28;20493;-80
2023/07/20 10:34:52;;;;;;;4.38;1.70;;;21.40;88.70;;;;;;5061634;28;20112;-81
2023/07/20 10:37:45;;;;;;;2.50;1.40;;;21.50;88.60;;;;;;5067561;28;20473;-80
2023/07/20 10:40:28;;;;;;;2.67;1.48;;;21.50;89.10;;;;;;5050312;28;20086;-79
2023/07/20 10:42:58;;;;;;;2.30;1.30;;;21.50;89.00;;;;;;5073959;28;20044;-80
2023/07/20 10:45:34;;;;;;;2.20;1.60;;;21.50;89.60;;;;;;5064265;28;20056;-80
2023/07/20 10:48:04;;;;;;;3.47;1.50;;;21.50;88.80;;;;;;5068359;28;20021;-81
2023/07/20 10:50:29;;;;;;;7.00;1.70;;;21.50;88.90;;;;;;5068902;28;20047;-80
2023/07/20 10:53:18;;;;;;;2.25;1.33;;;21.50;88.60;;;;;;5069218;28;20630;-79
2023/07/20 10:55:46;;;;;;;7.45;1.60;;;21.50;88.60;;;;;;5072291;28;20029;-80
2023/07/20 10:58:17;;;;;;;6.13;1.50;;;21.60;88.90;;;;;;5061559;28;20100;-80
2023/07/20 11:01:02;;;;;;;3.60;1.40;;;21.50;88.90;;;;;;5070907;28;20016;-80
2023/07/20 11:03:29;;;;;;;8.48;1.33;;;21.60;88.90;;;;;;5066796;28;20493;-79
2023/07/20 11:05:56;;;;;;;4.28;1.58;;;21.50;89.00;;;;;;5073465;28;20085;-78
2023/07/20 11:09:07;;;;;;;1.88;1.52;;;21.50;88.60;;;;;;5066637;28;20389;-80
2023/07/20 11:11:35;;;;;;;3.55;1.30;;;21.50;88.60;;;;;;5065027;28;20037;-80
2023/07/20 11:14:03;;;;;;;4.03;1.90;;;21.60;88.50;;;;;;5073850;28;20461;-81
2023/07/20 11:16:43;;;;;;;3.83;1.50;;;21.60;88.30;;;;;;5065492;28;20379;-79
2023/07/20 11:19:20;;;;;;;2.15;1.45;;;21.60;88.30;;;;;;5062775;28;20477;-80
2023/07/20 11:21:50;;;;;;;3.03;1.60;;;21.60;88.50;;;;;;5067514;28;20107;-80
2023/07/20 11:24:15;;;;;;;7.18;1.52;;;21.60;88.70;;;;;;5061138;28;20016;-80
2023/07/20 11:26:43;;;;;;;3.55;1.45;;;21.50;88.20;;;;;;5065929;28;20055;-80
2023/07/20 11:29:08;;;;;;;2.85;1.77;;;21.50;88.20;;;;;;5062377;28;20049;-80
2023/07/20 11:31:39;;;;;;;1.27;1.15;;;21.60;88.30;;;;;;5059815;28;20048;-80
2023/07/20 11:34:05;;;;;;;4.00;1.60;;;21.60;88.00;;;;;;5062957;28;20020;-80
2023/07/20 11:36:31;;;;;;;1.75;1.17;;;21.50;88.30;;;;;;5043101;28;20025;-78
2023/07/20 11:38:58;;;;;;;2.15;1.45;;;21.60;88.50;;;;;;5060988;28;20538;-79
2023/07/20 11:41:25;;;;;;;2.08;1.27;;;21.60;88.30;;;;;;5052795;28;20021;-78
2023/07/20 11:43:51;;;;;;;4.05;1.50;;;21.60;88.70;;;;;;5048012;28;20432;-79
2023/07/20 11:46:17;;;;;;;3.60;1.25;;;21.60;88.20;;;;;;5062242;28;20021;-79
2023/07/20 11:48:42;;;;;;;4.28;1.55;;;21.60;87.80;;;;;;5062296;28;20037;-80
2023/07/20 11:51:14;;;;;;;2.50;1.45;;;21.60;87.50;;;;;;5061444;28;20115;-80
2023/07/20 11:53:40;;;;;;;4.03;1.45;;;21.60;87.90;;;;;;5060890;28;20017;-79
2023/07/20 11:56:07;;;;;;;1.75;1.25;;;21.60;87.90;;;;;;5066929;28;20044;-79
2023/07/20 11:58:33;;;;;;;10.00;2.17;;;21.70;87.70;;;;;;5058586;28;20009;-80
2023/07/20 12:00:59;;;;;;;7.47;1.42;;;21.70;87.50;;;;;;5049336;28;20032;-79
2023/07/20 12:03:25;;;;;;;2.88;1.50;;;21.60;87.90;;;;;;5056000;28;20024;-79
2023/07/20 12:05:50;;;;;;;2.80;1.30;;;21.60;87.50;;;;;;5056455;28;20028;-80
2023/07/20 12:08:16;;;;;;;6.30;1.33;;;21.60;87.90;;;;;;5058400;28;20118;-79
2023/07/20 12:10:43;;;;;;;2.90;1.45;;;21.60;88.00;;;;;;5055718;28;20040;-79
2023/07/20 12:13:11;;;;;;;1.50;1.40;;;21.60;87.70;;;;;;5066825;28;20020;-79
2023/07/20 12:15:37;;;;;;;3.47;1.83;;;21.60;88.00;;;;;;5066036;28;20374;-80
2023/07/20 12:18:03;;;;;;;3.70;1.52;;;21.60;87.90;;;;;;5047677;28;20062;-79
2023/07/20 12:20:35;;;;;;;2.58;1.50;;;21.60;88.00;;;;;;5058487;28;20024;-79
2023/07/20 12:23:04;;;;;;;3.85;1.48;;;21.60;88.20;;;;;;5043760;28;20294;-78
2023/07/20 12:25:48;;;;;;;3.78;1.63;;;21.60;88.10;;;;;;5041725;28;20021;-79
2023/07/20 12:28:19;;;;;;;1.65;1.27;;;21.60;88.00;;;;;;5045071;28;20367;-80
2023/07/20 12:30:46;;;;;;;1.40;1.30;;;21.60;88.20;;;;;;5040962;28;20029;-79
2023/07/20 12:33:15;;;;;;;3.90;1.60;;;21.50;88.20;;;;;;5038060;28;20831;-80
2023/07/20 12:35:41;;;;;;;2.78;1.60;;;21.60;88.20;;;;;;5033926;28;20478;-79
2023/07/20 12:38:06;;;;;;;3.92;1.48;;;21.60;88.00;;;;;;5043336;28;20028;-79
2023/07/20 12:40:32;;;;;;;23.73;2.58;;;21.60;87.90;;;;;;5041900;28;20025;-79
2023/07/20 12:42:58;;;;;;;4.07;1.35;;;21.60;87.70;;;;;;5040203;28;20079;-79
2023/07/20 12:45:24;;;;;;;4.00;1.58;;;21.60;87.80;;;;;;5039468;28;20543;-79
2023/07/20 12:47:49;;;;;;;1.77;1.65;;;21.60;87.90;;;;;;5042535;28;20029;-79